ADDS METAR Data INFO
IDs: Format: Raw Decoded Include TAF

Data at: 0158 UTC 19 Jul 2018

K3T5 190155Z AUTO 16004KT 10SM CLR 31/21 A2990 RMK AO2 T03120212
K3T5 190135Z AUTO 15005KT 10SM CLR 32/22 A2989 RMK AO2 T03210215
K3T5 190115Z AUTO 16005KT 10SM CLR 33/22 A2989 RMK AO2 T03260219
K3T5 190055Z AUTO 16005KT 10SM CLR 34/22 A2988 RMK AO2 T03360218
K3T5 190035Z AUTO 16006KT 10SM CLR 34/22 A2987 RMK AO2 T03420219
K3T5 190015Z AUTO 15006KT 10SM CLR 35/22 A2987 RMK AO2 T03490219
K3T5 182355Z AUTO 15006KT 10SM CLR 36/22 A2987 RMK AO2 T03550216 10371 20337
K3T5 182335Z AUTO 15006KT 10SM CLR 36/20 A2987 RMK AO2 T03610204
K3T5 182315Z AUTO 15006KT 10SM CLR 37/20 A2987 RMK AO2 T03650203
K3T5 182255Z AUTO 15007KT 10SM CLR 37/20 A2987 RMK AO2 T03670198
K3T5 182235Z AUTO 16005KT 10SM CLR 37/20 A2988 RMK AO2 T03670199
K3T5 182215Z AUTO 16006KT 10SM CLR 37/20 A2988 RMK AO2 T03690203
K3T5 182155Z AUTO 18004KT 10SM CLR 37/20 A2989 RMK AO2 T03680202
K3T5 182135Z AUTO 20007KT 10SM CLR 37/21 A2989 RMK AO2 T03690206
K3T5 182115Z AUTO 14004KT 10SM CLR 37/20 A2991 RMK AO2 T03660199
K3T5 182055Z AUTO 13005KT 10SM CLR 37/20 A2991 RMK AO2 T03660200
K3T5 182035Z AUTO 17005KT 10SM CLR 37/20 A2992 RMK AO2 T03660204
K3T5 182015Z AUTO 00000KT 10SM CLR 36/21 A2993 RMK AO2 T03610208
K3T5 181955Z AUTO 16006KT 10SM CLR 36/22 A2993 RMK AO2 T03610220
K3T5 181935Z AUTO 00000KT 10SM CLR 36/21 A2994 RMK AO2 T03550213
K3T5 181915Z AUTO 13004KT 10SM CLR 35/21 A2995 RMK AO2 T03510214
K3T5 181855Z AUTO 27005KT 10SM CLR 35/22 A2995 RMK AO2 T03500220
K3T5 181835Z AUTO 00000KT 10SM CLR 35/22 A2996 RMK AO2 T03490224
K3T5 181815Z AUTO 22004KT 10SM CLR 34/23 A2997 RMK AO2 T03430225
K3T5 181755Z AUTO 19004KT 10SM CLR 34/23 A2998 RMK AO2 T03370225 10337 20255
K3T5 181735Z AUTO 23006KT 10SM CLR 33/23 A2999 RMK AO2 T03340229
K3T5 181715Z AUTO 25007KT 10SM CLR 33/23 A2999 RMK AO2 T03310228
K3T5 181655Z AUTO 24006KT 10SM CLR 33/23 A3000 RMK AO2 T03280232
K3T5 181635Z AUTO 26007KT 10SM CLR 32/23 A3000 RMK AO2 T03210230
K3T5 181615Z AUTO 25004KT 10SM CLR 32/23 A3000 RMK AO2 T03160233
K3T5 181555Z AUTO 25007KT 10SM CLR 31/23 A3001 RMK AO2 T03090230
K3T5 181535Z AUTO 22006KT 10SM CLR 31/23 A3001 RMK AO2 T03050231
K3T5 181515Z AUTO 25006KT 10SM CLR 30/23 A3001 RMK AO2 T02990233
K3T5 181455Z AUTO 23005KT 10SM CLR 29/24 A3001 RMK AO2 T02930237
K3T5 181435Z AUTO 22005KT 10SM CLR 29/24 A3002 RMK AO2 T02890243
K3T5 181415Z AUTO 23007KT 10SM SCT012 SCT018 28/24 A3002 RMK AO2 T02810243
K3T5 181355Z AUTO 23006KT 10SM BKN012 27/25 A3002 RMK AO2 T02730249
K3T5 181335Z AUTO 21005KT 7SM OVC012 27/25 A3002 RMK AO2 T02700251
K3T5 181315Z AUTO 23006KT 7SM OVC010 26/25 A3002 RMK AO2 T02630251
K3T5 181255Z AUTO 24006KT 7SM OVC010 26/25 A3001 RMK AO2 T02600253
K3T5 181235Z AUTO 21005KT 7SM OVC010 26/25 A3001 RMK AO2 T02580252
K3T5 181215Z AUTO 22004KT 7SM BKN008 26/25 A3002 RMK AO2 T02560251
K3T5 181155Z AUTO 22003KT 7SM BKN008 26/25 A3001 RMK AO2 T02550252 10260 20250
K3T5 181135Z AUTO 22003KT 7SM BKN008 26/25 A3001 RMK AO2 T02560253
K3T5 181115Z AUTO 22005KT 7SM BKN008 26/25 A3000 RMK AO2 T02570253
K3T5 181055Z AUTO 22005KT 7SM BKN008 26/25 A3000 RMK AO2 T02570253
K3T5 181035Z AUTO 21005KT 7SM OVC008 26/26 A3001 RMK AO2 T02580255
K3T5 181015Z AUTO 22006KT 10SM OVC008 26/25 A3001 RMK AO2 T02550253
K3T5 180955Z AUTO 00000KT 7SM SCT008 25/25 A3000 RMK AO2 T02510249
K3T5 180935Z AUTO 22004KT 7SM SCT010 25/25 A3000 RMK AO2 T02510250
K3T5 180915Z AUTO 21003KT 7SM BKN010 25/25 A3000 RMK AO2 T02520250
K3T5 180855Z AUTO 21003KT 7SM SCT010 25/25 A3001 RMK AO2 T02500247
K3T5 180835Z AUTO 21004KT 10SM CLR 25/25 A3000 RMK AO2 T02510249
K3T5 180815Z AUTO 21004KT 10SM CLR 25/25 A3000 RMK AO2 T02510248
K3T5 180755Z AUTO 21003KT 10SM CLR 25/25 A3001 RMK AO2 T02520248
K3T5 180735Z AUTO 00000KT 10SM CLR 25/25 A3000 RMK AO2 T02520247
K3T5 180715Z AUTO 20004KT 10SM CLR 25/25 A2999 RMK AO2 T02520246
K3T5 180655Z AUTO 19004KT 10SM CLR 25/25 A3000 RMK AO2 T02530246
K3T5 180635Z AUTO 20005KT 10SM CLR 25/25 A3000 RMK AO2 T02540245
K3T5 180615Z AUTO 19005KT 10SM CLR 26/25 A3000 RMK AO2 T02580245
K3T5 180555Z AUTO 20005KT 10SM CLR 26/24 A3001 RMK AO2 T02600243 10345 20260 403570235
K3T5 180535Z AUTO 20005KT 10SM CLR 27/24 A3001 RMK AO2 T02650241
K3T5 180515Z AUTO 20006KT 10SM CLR 27/24 A3001 RMK AO2 T02680241
K3T5 180455Z AUTO 19007KT 10SM CLR 27/24 A3000 RMK AO2 T02720240
K3T5 180435Z AUTO 19008KT 10SM CLR 28/24 A3000 RMK AO2 T02770240
K3T5 180415Z AUTO 19006KT 10SM CLR 28/24 A3001 RMK AO2 T02800240
K3T5 180355Z AUTO 18008KT 10SM CLR 29/24 A3000 RMK AO2 T02850240
K3T5 180335Z AUTO 18007KT 10SM CLR 29/24 A3000 RMK AO2 T02870242
K3T5 180315Z AUTO 18005KT 10SM CLR 29/24 A2999 RMK AO2 T02900242
K3T5 180255Z AUTO 18006KT 10SM CLR 29/24 A2999 RMK AO2 T02940240
K3T5 180235Z AUTO 18005KT 10SM CLR 30/24 A2998 RMK AO2 T03000236
K3T5 180215Z AUTO 16005KT 10SM CLR 30/23 A2998 RMK AO2 T03020231
K3T5 180155Z AUTO 17004KT 10SM CLR 31/23 A2997 RMK AO2 T03070234
K3T5 180135Z AUTO 16004KT 10SM CLR 31/23 A2997 RMK AO2 T03140233
K3T5 180115Z AUTO 17005KT 10SM CLR 32/23 A2997 RMK AO2 T03190234
K3T5 180055Z AUTO 16004KT 10SM CLR 33/23 A2997 RMK AO2 T03280231
K3T5 180035Z AUTO 16006KT 10SM CLR 33/23 A2996 RMK AO2 T03340231
K3T5 180015Z AUTO 15006KT 10SM CLR 34/23 A2996 RMK AO2 T03400233
K3T5 172355Z AUTO 16007KT 10SM CLR 35/23 A2996 RMK AO2 T03450229 10357 20324
K3T5 172335Z AUTO 16007KT 10SM CLR 35/23 A2996 RMK AO2 T03480234
K3T5 172315Z AUTO 14006KT 10SM CLR 35/23 A2996 RMK AO2 T03500230
K3T5 172255Z AUTO 17005KT 10SM CLR 35/22 A2997 RMK AO2 T03530218
K3T5 172235Z AUTO 15005KT 10SM CLR 36/23 A2997 RMK AO2 T03550226
K3T5 172215Z AUTO 16004KT 10SM CLR 36/23 A2998 RMK AO2 T03560228
K3T5 172155Z AUTO 16005KT 10SM CLR 35/23 A2998 RMK AO2 T03540227
K3T5 172135Z AUTO 17004KT 10SM CLR 36/23 A2998 RMK AO2 T03550234
K3T5 172115Z AUTO 17004KT 10SM CLR 36/23 A2999 RMK AO2 T03550226
K3T5 172055Z AUTO 18006KT 10SM CLR 35/23 A3000 RMK AO2 T03500227
K3T5 172035Z AUTO 20005KT 10SM CLR 35/22 A3001 RMK AO2 T03500223
K3T5 172015Z AUTO 21005KT 10SM CLR 35/23 A3001 RMK AO2 T03500227
K3T5 171955Z AUTO 00000KT 10SM CLR 34/23 A3002 RMK AO2 T03430225
K3T5 171935Z AUTO 29003KT 10SM CLR 34/23 A3003 RMK AO2 T03430231
K3T5 171915Z AUTO 16004KT 10SM CLR 34/23 A3003 RMK AO2 T03390232
K3T5 171855Z AUTO 16003KT 10SM CLR 34/23 A3004 RMK AO2 T03360231
K3T5 171835Z AUTO 00000KT 10SM CLR 33/24 A3004 RMK AO2 T03290236
K3T5 171815Z AUTO 08004KT 10SM CLR 33/24 A3005 RMK AO2 T03260238
K3T5 171755Z AUTO 00000KT 10SM CLR 32/24 A3005 RMK AO2 T03210239 10324 20253
K3T5 171735Z AUTO 24004KT 10SM CLR 32/24 A3006 RMK AO2 T03220240
K3T5 171715Z AUTO 24007KT 10SM CLR 32/24 A3006 RMK AO2 T03190240
K3T5 171655Z AUTO 26007KT 10SM CLR 31/24 A3006 RMK AO2 T03130239
K3T5 171635Z AUTO 26005KT 7SM CLR 31/24 A3007 RMK AO2 T03090238
K3T5 171615Z AUTO 21006KT 10SM SCT026 31/24 A3007 RMK AO2 T03050241
K3T5 171555Z AUTO 24005KT 10SM SCT024 30/24 A3008 RMK AO2 T03000242
K3T5 171535Z AUTO 24008KT 10SM SCT022 30/25 A3008 RMK AO2 T02970246
K3T5 171515Z AUTO 24007KT 10SM BKN020 29/24 A3007 RMK AO2 T02900244
K3T5 171455Z AUTO 24008KT 10SM BKN016 BKN022 28/25 A3008 RMK AO2 T02840246
K3T5 171435Z AUTO 24009KT 10SM BKN014 28/25 A3009 RMK AO2 T02800247
K3T5 171415Z AUTO 23009KT 10SM BKN011 OVC017 27/25 A3008 RMK AO2 T02720251